createdAt,value
2022-11-06T00:00:18.777Z,10.08
2022-11-06T00:05:38.956Z,9.99
2022-11-06T00:10:40.490Z,9.99
2022-11-06T00:15:41.813Z,9.93
2022-11-06T00:20:43.275Z,9.88
2022-11-06T00:25:44.676Z,9.85
2022-11-06T00:30:46.775Z,9.82
2022-11-06T00:35:48.128Z,9.83
2022-11-06T00:40:49.480Z,9.90
2022-11-06T00:45:50.810Z,9.86
2022-11-06T00:50:52.170Z,9.90
2022-11-06T00:55:53.670Z,9.91
2022-11-06T01:00:55.002Z,9.96
2022-11-06T01:06:03.044Z,9.94
2022-11-06T01:11:22.892Z,9.90
2022-11-06T01:16:25.315Z,9.94
2022-11-06T01:21:33.075Z,9.86
2022-11-06T01:26:39.284Z,9.88
2022-11-06T01:31:44.558Z,9.82
2022-11-06T01:36:46.669Z,9.71
2022-11-06T01:41:50.764Z,9.68
2022-11-06T01:46:52.324Z,9.57
2022-11-06T01:51:57.793Z,9.53
2022-11-06T01:57:01.124Z,9.53
2022-11-06T02:02:02.879Z,9.61
2022-11-06T02:07:05.821Z,9.46
2022-11-06T02:12:32.958Z,9.32
2022-11-06T02:17:46.544Z,9.32
2022-11-06T02:23:30.837Z,9.25
2022-11-06T02:28:39.080Z,9.29
2022-11-06T02:33:48.957Z,9.34
2022-11-06T02:38:57.257Z,9.40
2022-11-06T02:44:00.037Z,9.50
2022-11-06T02:49:07.660Z,9.52
2022-11-06T02:54:11.521Z,9.50
2022-11-06T02:59:29.208Z,9.47
2022-11-06T03:04:43.821Z,9.43
2022-11-06T03:09:45.625Z,9.49
2022-11-06T03:14:57.007Z,9.51
2022-11-06T03:20:23.398Z,9.47
2022-11-06T03:25:43.350Z,9.53
2022-11-06T03:30:50.712Z,9.48
2022-11-06T03:35:58.926Z,9.55
2022-11-06T03:41:06.920Z,9.63
2022-11-06T03:46:15.505Z,9.54
2022-11-06T03:51:25.282Z,9.56
2022-11-06T03:56:59.843Z,9.54
2022-11-06T04:02:02.945Z,9.45
2022-11-06T04:07:13.104Z,9.43
2022-11-06T04:12:38.861Z,9.41
2022-11-06T04:17:41.744Z,9.22
2022-11-06T04:22:59.751Z,9.06
2022-11-06T04:28:48.887Z,9.01
2022-11-06T04:33:59.034Z,9.02
2022-11-06T04:39:12.554Z,8.97
2022-11-06T04:44:23.878Z,8.95
2022-11-06T04:49:29.042Z,8.97
2022-11-06T04:54:32.110Z,8.90
2022-11-06T04:59:36.545Z,8.85
2022-11-06T05:04:37.901Z,8.72
2022-11-06T05:09:39.259Z,8.67
2022-11-06T05:14:40.628Z,8.68
2022-11-06T05:19:41.964Z,8.78
2022-11-06T05:24:43.331Z,8.83
2022-11-06T05:29:45.181Z,8.87
2022-11-06T05:34:46.967Z,8.85
2022-11-06T05:39:48.324Z,8.85
2022-11-06T05:44:49.732Z,8.80
2022-11-06T05:49:51.076Z,8.73
2022-11-06T05:54:52.550Z,8.73
2022-11-06T05:59:53.907Z,8.66
2022-11-06T06:04:55.250Z,8.59
2022-11-06T06:09:56.732Z,8.47
2022-11-06T06:14:58.086Z,8.37
2022-11-06T06:19:59.527Z,8.28
2022-11-06T06:25:01.598Z,8.34
2022-11-06T06:30:03.345Z,8.37
2022-11-06T06:35:05.296Z,8.26
2022-11-06T06:40:07.130Z,8.23
2022-11-06T06:45:08.834Z,8.25
2022-11-06T06:50:10.224Z,8.24
2022-11-06T06:55:11.597Z,8.16
2022-11-06T07:00:13.256Z,8.16
2022-11-06T07:05:14.630Z,8.12
2022-11-06T07:10:16.688Z,8.14
2022-11-06T07:15:18.095Z,8.15
2022-11-06T07:20:19.512Z,8.14
2022-11-06T07:25:20.878Z,8.20
2022-11-06T07:30:22.238Z,8.31
2022-11-06T07:35:23.596Z,8.41
2022-11-06T07:40:25.032Z,8.44
2022-11-06T07:45:26.377Z,8.50
2022-11-06T07:50:27.880Z,8.52
2022-11-06T07:55:29.736Z,8.62
2022-11-06T08:00:31.052Z,8.66
2022-11-06T08:05:32.396Z,8.73
2022-11-06T08:10:33.852Z,8.80
2022-11-06T08:15:38.069Z,8.92
2022-11-06T08:20:40.248Z,9.02
2022-11-06T08:25:41.661Z,9.07
2022-11-06T08:30:43.020Z,9.07
2022-11-06T08:35:44.574Z,9.23
2022-11-06T08:40:50.723Z,9.42
2022-11-06T08:45:54.772Z,9.61
2022-11-06T08:50:56.334Z,9.85
2022-11-06T08:55:57.721Z,9.99
2022-11-06T09:00:59.156Z,10.12
2022-11-06T09:06:00.781Z,10.23
2022-11-06T09:11:07.312Z,10.43
2022-11-06T09:16:14.279Z,10.50
2022-11-06T09:21:17.088Z,10.50
2022-11-06T09:26:18.606Z,10.58
2022-11-06T09:31:19.978Z,10.62
2022-11-06T09:36:21.409Z,10.70
2022-11-06T09:41:50.473Z,10.85
2022-11-06T09:46:53.686Z,10.89
2022-11-06T09:52:38.441Z,10.97
2022-11-06T09:57:55.948Z,11.01
2022-11-06T10:03:05.483Z,11.05
2022-11-06T10:08:15.522Z,11.19
2022-11-06T10:13:38.073Z,11.43
2022-11-06T10:18:56.558Z,11.50
2022-11-06T10:24:02.329Z,11.52
2022-11-06T10:29:18.676Z,11.54
2022-11-06T10:34:25.157Z,11.62
2022-11-06T10:39:32.637Z,11.69
2022-11-06T10:44:38.026Z,11.84
2022-11-06T10:49:48.083Z,12.10
2022-11-06T10:55:05.349Z,12.08
2022-11-06T11:00:12.500Z,12.24
2022-11-06T11:05:17.050Z,12.32
2022-11-06T11:10:24.436Z,12.52
2022-11-06T11:15:26.966Z,12.65
2022-11-06T11:20:31.168Z,12.76
2022-11-06T11:25:32.671Z,12.81
2022-11-06T11:30:34.091Z,12.93
2022-11-06T11:35:38.350Z,13.00
2022-11-06T11:40:40.236Z,13.12
2022-11-06T11:45:42.668Z,13.18
2022-11-06T11:50:44.164Z,13.38
2022-11-06T11:55:49.172Z,13.39
2022-11-06T12:00:54.568Z,13.51
2022-11-06T12:06:12.961Z,13.68
2022-11-06T12:11:19.714Z,13.77
2022-11-06T12:16:21.308Z,13.84
2022-11-06T12:21:48.840Z,13.97
2022-11-06T12:26:59.015Z,14.05
2022-11-06T12:32:21.840Z,14.21
2022-11-06T12:37:37.110Z,14.25
2022-11-06T12:42:41.450Z,14.35
2022-11-06T12:47:57.485Z,14.43
2022-11-06T12:53:03.441Z,14.49
2022-11-06T12:58:29.022Z,14.63
2022-11-06T13:03:59.691Z,14.79
2022-11-06T13:09:06.234Z,14.91
2022-11-06T13:14:29.673Z,14.95
2022-11-06T13:19:47.589Z,14.99
2022-11-06T13:25:20.717Z,15.02
2022-11-06T13:30:24.485Z,15.07
2022-11-06T13:35:27.060Z,15.13
2022-11-06T13:40:37.115Z,15.14
2022-11-06T13:46:07.563Z,15.15
2022-11-06T13:51:42.016Z,15.22
2022-11-06T13:57:24.546Z,15.24
2022-11-06T14:02:37.044Z,15.25
2022-11-06T14:07:41.285Z,15.18
2022-11-06T14:12:46.887Z,15.14
2022-11-06T14:18:01.620Z,15.02
2022-11-06T14:23:29.074Z,14.93
2022-11-06T14:28:33.072Z,14.94
2022-11-06T14:33:58.361Z,14.86
2022-11-06T14:38:59.888Z,14.81
2022-11-06T14:44:18.855Z,14.68
2022-11-06T14:49:26.541Z,14.56
2022-11-06T14:54:28.708Z,14.51
2022-11-06T14:59:34.956Z,14.50
2022-11-06T15:04:44.198Z,14.42
2022-11-06T15:09:47.516Z,14.39
2022-11-06T15:14:48.854Z,14.38
2022-11-06T15:20:06.069Z,14.21
2022-11-06T15:25:10.390Z,13.97
2022-11-06T15:30:17.664Z,13.97
2022-11-06T15:35:23.611Z,13.97
2022-11-06T15:40:29.206Z,13.83
2022-11-06T15:45:30.604Z,13.69
2022-11-06T15:50:34.156Z,13.69
2022-11-06T15:55:38.361Z,13.75
2022-11-06T16:00:41.448Z,13.73
2022-11-06T16:05:43.116Z,13.69
2022-11-06T16:10:48.161Z,13.66
2022-11-06T16:15:58.900Z,13.60
2022-11-06T16:21:08.745Z,13.51
2022-11-06T16:26:22.840Z,13.44
2022-11-06T16:31:28.129Z,13.16
2022-11-06T16:36:31.656Z,13.19
2022-11-06T16:41:59.661Z,13.15
2022-11-06T16:47:09.889Z,13.09
2022-11-06T16:52:32.646Z,13.04
2022-11-06T16:57:36.926Z,12.89
2022-11-06T17:02:38.739Z,12.98
2022-11-06T17:07:41.257Z,12.99
2022-11-06T17:12:42.646Z,12.93
2022-11-06T17:17:43.973Z,12.81
2022-11-06T17:22:46.075Z,12.78
2022-11-06T17:27:47.418Z,12.78
2022-11-06T17:32:48.759Z,12.82
2022-11-06T17:37:50.130Z,12.87
2022-11-06T17:42:51.533Z,12.72
2022-11-06T17:47:52.896Z,12.54
2022-11-06T17:52:54.369Z,12.39
2022-11-06T17:57:55.697Z,12.25
2022-11-06T18:03:02.309Z,12.15
2022-11-06T18:08:04.002Z,12.08
2022-11-06T18:13:06.969Z,11.99
2022-11-06T18:18:08.326Z,12.01
2022-11-06T18:23:09.657Z,11.94
2022-11-06T18:28:11.027Z,11.89
2022-11-06T18:33:12.382Z,11.88
2022-11-06T18:38:14.961Z,11.80
2022-11-06T18:43:16.515Z,11.67
2022-11-06T18:48:21.248Z,11.69
2022-11-06T18:53:23.121Z,11.66
2022-11-06T18:58:24.576Z,11.74
2022-11-06T19:03:25.939Z,11.83
2022-11-06T19:08:27.283Z,11.90
2022-11-06T19:13:28.686Z,11.91
2022-11-06T19:18:31.261Z,11.78
2022-11-06T19:23:32.669Z,11.92
2022-11-06T19:28:36.003Z,11.96
2022-11-06T19:33:37.556Z,11.83
2022-11-06T19:38:39.249Z,11.85
2022-11-06T19:43:40.677Z,11.83
2022-11-06T19:48:42.096Z,11.71
2022-11-06T19:53:43.607Z,11.62
2022-11-06T19:58:45.056Z,11.56
2022-11-06T20:03:46.876Z,11.57
2022-11-06T20:08:50.158Z,11.49
2022-11-06T20:13:51.609Z,11.50
2022-11-06T20:18:57.860Z,11.57
2022-11-06T20:23:59.298Z,11.55
2022-11-06T20:29:00.750Z,11.56
2022-11-06T20:34:02.179Z,11.53
2022-11-06T20:39:03.918Z,11.48
2022-11-06T20:44:05.377Z,11.49
2022-11-06T20:49:06.898Z,11.50
2022-11-06T20:54:08.403Z,11.61
2022-11-06T20:59:10.236Z,11.66
2022-11-06T21:04:12.063Z,11.77
2022-11-06T21:09:13.428Z,11.81
2022-11-06T21:14:14.873Z,11.95
2022-11-06T21:19:16.263Z,11.92
2022-11-06T21:24:17.738Z,11.93
2022-11-06T21:29:19.068Z,11.94
2022-11-06T21:34:20.487Z,12.03
2022-11-06T21:39:22.242Z,12.05
2022-11-06T21:44:23.770Z,12.04
2022-11-06T21:49:25.147Z,12.03
2022-11-06T21:54:45.290Z,11.99
2022-11-06T21:59:46.633Z,12.01
2022-11-06T22:04:47.966Z,12.06
2022-11-06T22:09:49.316Z,12.06
2022-11-06T22:14:50.654Z,12.08
2022-11-06T22:19:51.993Z,12.06
2022-11-06T22:24:53.398Z,12.05
2022-11-06T22:29:54.753Z,12.03
2022-11-06T22:34:56.105Z,12.01
2022-11-06T22:39:57.437Z,12.04
2022-11-06T22:44:58.766Z,12.03
2022-11-06T22:50:00.497Z,12.06
2022-11-06T22:55:01.828Z,12.00
2022-11-06T23:00:05.280Z,12.12
2022-11-06T23:05:07.311Z,12.05
2022-11-06T23:10:09.382Z,12.14
2022-11-06T23:15:10.823Z,12.07
2022-11-06T23:20:12.154Z,12.17
2022-11-06T23:25:14.722Z,12.12
2022-11-06T23:30:16.081Z,12.19
2022-11-06T23:35:19.482Z,12.22
2022-11-06T23:40:22.496Z,12.25
2022-11-06T23:45:42.288Z,12.21
2022-11-06T23:50:47.034Z,12.26
2022-11-06T23:55:48.551Z,12.30
